Time;durP1;ratioP1;P1;durP2;ratioP2;P2;SDS_P1;SDS_P2;PMS_P1;PMS_P2;Temp;Humidity;BMP_temperature;BMP_pressure;BME280_temperature;BME280_humidity;BME280_pressure;Samples;Min_cycle;Max_cycle;Signal;HPM_P1;HPM_P2
2024/04/09 00:00:49;;;;;;;20.25;11.70;;;;;;;10.08;60.74;100440.56;5235579;26;20010;-69
2024/04/09 00:03:16;;;;;;;22.15;12.23;;;;;;;10.06;61.09;100438.06;5212471;26;20439;-69
2024/04/09 00:05:43;;;;;;;17.80;11.43;;;;;;;9.95;61.43;100441.13;5232796;26;20763;-71
2024/04/09 00:08:12;;;;;;;18.92;10.52;;;;;;;10.00;61.86;100436.53;5241102;26;20025;-68
2024/04/09 00:10:38;;;;;;;22.33;12.07;;;;;;;10.05;61.35;100438.94;5239844;26;20014;-68
2024/04/09 00:13:04;;;;;;;16.65;11.88;;;;;;;10.02;61.59;100426.88;5240550;26;20024;-68
2024/04/09 00:15:30;;;;;;;20.58;11.05;;;;;;;9.98;61.81;100414.03;5219150;26;20728;-68
2024/04/09 00:18:09;;;;;;;19.33;11.75;;;;;;;9.99;62.05;100415.72;5236429;26;20016;-68
2024/04/09 00:20:35;;;;;;;17.30;11.50;;;;;;;10.09;61.61;100416.16;5220932;26;20021;-69
2024/04/09 00:23:00;;;;;;;18.38;11.35;;;;;;;10.13;61.42;100412.50;5265259;26;20002;-69
2024/04/09 00:25:25;;;;;;;22.23;12.25;;;;;;;10.22;60.98;100420.75;5237370;26;19998;-67
2024/04/09 00:27:53;;;;;;;18.10;11.35;;;;;;;10.14;60.78;100422.03;5245262;26;20002;-67
2024/04/09 00:30:21;;;;;;;14.85;10.07;;;;;;;10.16;60.82;100418.41;5241641;26;19997;-67
2024/04/09 00:32:51;;;;;;;16.83;11.52;;;;;;;10.13;61.25;100413.34;5247850;26;20092;-73
2024/04/09 00:35:22;;;;;;;20.35;11.48;;;;;;;10.06;62.08;100406.72;5237546;26;20003;-71
2024/04/09 00:37:51;;;;;;;19.55;10.85;;;;;;;10.25;61.29;100400.66;5241465;26;20655;-72
2024/04/09 00:40:24;;;;;;;17.15;10.48;;;;;;;10.23;61.41;100400.72;5232553;26;20045;-72
2024/04/09 00:42:57;;;;;;;15.48;10.27;;;;;;;10.28;61.10;100405.72;5248746;26;20003;-72
2024/04/09 00:45:23;;;;;;;16.15;10.88;;;;;;;10.22;61.33;100397.25;5226410;26;20006;-74
2024/04/09 00:47:53;;;;;;;15.05;10.20;;;;;;;10.21;61.96;100385.13;5235522;26;20058;-74
2024/04/09 00:50:20;;;;;;;19.58;10.90;;;;;;;10.25;61.48;100384.97;5225199;26;20007;-72
2024/04/09 00:52:48;;;;;;;17.30;10.70;;;;;;;10.33;61.81;100388.09;5236863;26;20005;-74
2024/04/09 00:55:15;;;;;;;18.35;10.18;;;;;;;10.35;61.83;100394.09;5233968;26;20006;-72
2024/04/09 00:57:47;;;;;;;18.88;10.52;;;;;;;10.52;61.72;100388.91;5252980;26;20423;-73
2024/04/09 01:00:14;;;;;;;18.17;9.75;;;;;;;10.55;61.69;100386.16;5242150;26;20980;-73
2024/04/09 01:02:41;;;;;;;17.73;9.93;;;;;;;10.69;61.38;100389.88;5227038;26;22638;-69
2024/04/09 01:05:08;;;;;;;16.48;9.98;;;;;;;10.77;60.98;100377.25;5234838;26;19999;-69
2024/04/09 01:07:34;;;;;;;17.60;8.95;;;;;;;10.90;60.58;100385.38;5223636;26;20017;-69
2024/04/09 01:10:00;;;;;;;16.40;9.65;;;;;;;10.81;60.73;100391.88;5237600;26;20049;-70
2024/04/09 01:12:25;;;;;;;18.15;9.07;;;;;;;10.88;60.97;100387.22;5229055;26;20018;-69
2024/04/09 01:14:51;;;;;;;17.88;8.75;;;;;;;10.90;60.71;100396.69;5231842;26;20002;-69
2024/04/09 01:17:19;;;;;;;17.60;9.18;;;;;;;10.98;60.53;100397.16;5231564;26;20002;-69
2024/04/09 01:19:45;;;;;;;16.20;8.77;;;;;;;10.97;60.57;100395.50;5226122;26;20837;-68
2024/04/09 01:22:11;;;;;;;16.02;8.75;;;;;;;10.97;60.75;100395.50;5234193;26;20009;-68
2024/04/09 01:24:37;;;;;;;13.02;8.88;;;;;;;11.07;59.94;100384.56;5223255;26;20002;-69
2024/04/09 01:27:05;;;;;;;14.40;7.60;;;;;;;11.04;60.44;100391.63;5231199;26;20249;-69
2024/04/09 01:29:32;;;;;;;17.90;9.57;;;;;;;10.96;60.68;100388.53;5236440;26;20079;-70
2024/04/09 01:31:58;;;;;;;15.85;7.15;;;;;;;11.02;60.52;100388.25;5234279;26;20013;-69
2024/04/09 01:34:23;;;;;;;16.13;9.35;;;;;;;10.95;60.82;100381.63;5241521;26;20007;-70
2024/04/09 01:36:48;;;;;;;16.60;7.82;;;;;;;11.07;60.65;100384.56;5229488;26;20117;-69
2024/04/09 01:39:14;;;;;;;16.13;7.93;;;;;;;11.02;60.55;100367.34;5233155;26;20087;-70
2024/04/09 01:41:41;;;;;;;14.23;7.25;;;;;;;10.99;60.84;100364.00;5221283;26;21821;-69
2024/04/09 01:44:07;;;;;;;11.45;7.80;;;;;;;11.05;60.99;100351.47;5235269;26;19998;-70
2024/04/09 01:46:33;;;;;;;9.95;6.85;;;;;;;11.12;60.38;100345.94;5222531;26;20541;-68
2024/04/09 01:48:59;;;;;;;13.73;8.25;;;;;;;11.12;60.55;100338.09;5234390;26;20017;-70
2024/04/09 01:51:25;;;;;;;10.73;7.28;;;;;;;11.04;61.15;100326.25;5229173;26;20472;-70
2024/04/09 01:53:50;;;;;;;9.23;6.20;;;;;;;11.02;61.17;100315.03;5228782;26;20006;-71
2024/04/09 01:56:16;;;;;;;18.40;7.22;;;;;;;11.00;61.36;100316.03;5233950;26;20006;-70
2024/04/09 01:58:42;;;;;;;13.25;7.50;;;;;;;11.16;60.44;100313.47;5220928;26;21198;-70
2024/04/09 02:01:11;;;;;;;12.52;7.57;;;;;;;11.13;60.79;100303.16;5225527;26;20505;-70
2024/04/09 02:03:38;;;;;;;12.15;7.20;;;;;;;11.11;60.99;100302.41;5222149;26;20032;-71
2024/04/09 02:06:04;;;;;;;11.35;7.38;;;;;;;11.16;60.87;100292.56;5245530;26;20496;-71
2024/04/09 02:08:30;;;;;;;8.40;6.35;;;;;;;11.18;60.86;100298.56;5239566;26;20488;-71
2024/04/09 02:10:55;;;;;;;13.32;6.78;;;;;;;11.37;60.74;100294.03;5236564;26;20097;-70
2024/04/09 02:13:22;;;;;;;8.98;5.65;;;;;;;11.45;60.17;100296.25;5230773;26;20002;-70
2024/04/09 02:15:48;;;;;;;10.48;6.97;;;;;;;11.40;60.36;100301.75;5223254;26;20024;-70
2024/04/09 02:18:13;;;;;;;11.35;6.38;;;;;;;11.46;60.06;100298.81;5236899;26;20495;-70
2024/04/09 02:20:42;;;;;;;11.20;6.38;;;;;;;11.40;59.83;100304.34;5222159;26;20006;-71
2024/04/09 02:23:08;;;;;;;9.90;5.22;;;;;;;11.39;59.95;100297.41;5235257;26;20006;-70
2024/04/09 02:25:34;;;;;;;8.88;5.60;;;;;;;11.45;59.63;100299.72;5224822;26;20535;-69
2024/04/09 02:27:59;;;;;;;12.98;5.90;;;;;;;11.50;59.41;100288.16;5234753;26;20014;-70
2024/04/09 02:30:25;;;;;;;16.73;6.20;;;;;;;11.45;59.73;100291.03;5230393;26;20248;-69
2024/04/09 02:32:50;;;;;;;11.57;5.88;;;;;;;11.42;60.17;100285.97;5247200;26;20010;-69
2024/04/09 02:35:19;;;;;;;12.45;5.45;;;;;;;11.48;60.26;100282.16;5238268;26;20001;-71
2024/04/09 02:37:46;;;;;;;11.70;5.25;;;;;;;11.46;60.49;100262.19;5228397;26;20020;-73
2024/04/09 02:40:15;;;;;;;7.35;5.35;;;;;;;11.43;60.56;100251.00;5234039;26;20003;-74
2024/04/09 02:42:42;;;;;;;12.38;5.38;;;;;;;11.29;60.75;100228.22;5226800;26;20532;-72
2024/04/09 02:45:09;;;;;;;10.20;4.88;;;;;;;11.52;60.28;100228.75;5230213;26;20719;-72
2024/04/09 02:47:35;;;;;;;7.13;4.82;;;;;;;11.55;60.30;100233.78;5226859;26;20697;-73
2024/04/09 02:50:02;;;;;;;12.07;5.05;;;;;;;11.60;60.24;100221.31;5233632;26;20615;-73
2024/04/09 02:52:27;;;;;;;11.07;4.93;;;;;;;11.66;59.40;100234.06;5243429;26;20009;-73
2024/04/09 02:54:53;;;;;;;7.55;4.80;;;;;;;11.70;59.60;100221.66;5229901;26;20009;-71
2024/04/09 02:57:19;;;;;;;16.10;5.40;;;;;;;11.65;59.62;100229.75;5261399;26;20025;-71
2024/04/09 02:59:44;;;;;;;12.32;5.40;;;;;;;11.45;60.22;100241.31;5239697;26;20080;-72
2024/04/09 03:02:10;;;;;;;8.95;4.55;;;;;;;11.46;59.91;100215.06;5243904;26;20010;-72
2024/04/09 03:04:35;;;;;;;10.45;5.07;;;;;;;11.48;59.98;100220.19;5230802;26;20005;-71
2024/04/09 03:07:03;;;;;;;14.80;5.40;;;;;;;11.03;61.82;100246.09;5226777;26;20013;-73
2024/04/09 03:09:30;;;;;;;9.48;5.18;;;;;;;11.38;60.66;100212.00;5230647;26;20006;-73
2024/04/09 03:11:56;;;;;;;12.73;4.38;;;;;;;11.33;60.80;100208.81;5226949;26;20002;-73
2024/04/09 03:14:22;;;;;;;7.07;4.55;;;;;;;11.16;60.94;100242.88;5260328;26;20025;-72
2024/04/09 03:16:50;;;;;;;12.43;5.50;;;;;;;11.42;59.78;100217.94;5218634;26;20750;-72
2024/04/09 03:19:19;;;;;;;9.73;4.55;;;;;;;11.42;60.00;100197.00;5237241;26;20053;-73
2024/04/09 03:21:44;;;;;;;13.40;5.80;;;;;;;11.30;60.15;100216.81;5221310;26;20824;-73
2024/04/09 03:24:10;;;;;;;9.02;4.97;;;;;;;11.23;60.29;100225.91;5227403;26;20030;-71
2024/04/09 03:26:37;;;;;;;11.30;5.10;;;;;;;11.26;60.56;100241.44;5220233;26;20018;-69
2024/04/09 03:29:03;;;;;;;7.32;4.85;;;;;;;11.19;60.98;100235.69;5242488;26;20021;-68
2024/04/09 03:31:31;;;;;;;7.50;4.65;;;;;;;11.30;60.24;100234.28;5233589;26;20034;-69
2024/04/09 03:33:56;;;;;;;8.40;4.47;;;;;;;10.81;62.26;100245.47;5224795;26;20214;-68
2024/04/09 03:36:22;;;;;;;7.53;5.28;;;;;;;11.03;61.60;100253.94;5233892;26;20510;-68
2024/04/09 03:38:47;;;;;;;11.27;4.97;;;;;;;11.09;61.31;100260.66;5224860;26;20001;-68
2024/04/09 03:41:13;;;;;;;10.45;5.25;;;;;;;11.04;61.47;100271.34;5236682;26;20079;-69
2024/04/09 03:43:39;;;;;;;15.02;5.53;;;;;;;10.80;62.12;100285.63;5253168;26;20005;-69
2024/04/09 03:46:16;;;;;;;8.85;5.00;;;;;;;10.86;61.92;100281.88;5237237;26;20073;-69
2024/04/09 03:48:43;;;;;;;6.50;4.97;;;;;;;10.88;61.83;100280.88;5224229;26;20013;-68
2024/04/09 03:51:10;;;;;;;6.80;4.93;;;;;;;11.16;60.64;100276.88;5234268;26;20006;-70
2024/04/09 03:53:37;;;;;;;8.32;5.03;;;;;;;11.10;60.68;100274.56;5221945;26;20322;-71
2024/04/09 03:56:06;;;;;;;8.63;6.30;;;;;;;10.76;61.59;100268.41;5230378;26;20005;-67
2024/04/09 03:58:38;;;;;;;10.43;5.47;;;;;;;10.99;61.00;100281.16;5224931;26;20438;-68
2024/04/09 04:01:04;;;;;;;11.00;5.50;;;;;;;10.99;60.94;100278.56;5233315;26;20006;-68
2024/04/09 04:03:33;;;;;;;7.95;5.30;;;;;;;11.11;61.09;100281.50;5229179;26;20092;-68
2024/04/09 04:06:00;;;;;;;8.70;5.35;;;;;;;11.16;60.36;100280.31;5228317;26;20010;-73
2024/04/09 04:08:33;;;;;;;9.88;5.20;;;;;;;11.22;60.33;100284.41;5223636;26;20006;-73
2024/04/09 04:11:03;;;;;;;9.70;6.53;;;;;;;11.16;60.45;100276.88;5220993;26;20018;-72
2024/04/09 04:13:33;;;;;;;9.98;6.65;;;;;;;11.05;60.63;100272.19;5226562;26;20151;-70
2024/04/09 04:16:21;;;;;;;8.43;5.55;;;;;;;11.00;60.58;100274.19;5230816;26;20356;-73
2024/04/09 04:18:47;;;;;;;19.40;6.07;;;;;;;10.94;60.41;100270.13;5224890;26;20001;-71
2024/04/09 04:21:15;;;;;;;10.60;5.47;;;;;;;11.02;60.64;100267.97;5232769;26;20016;-73
2024/04/09 04:23:47;;;;;;;8.35;5.88;;;;;;;10.98;60.23;100271.66;5223769;26;20011;-70
2024/04/09 04:26:18;;;;;;;8.65;6.03;;;;;;;11.00;60.17;100268.97;5229573;26;20555;-69
2024/04/09 04:28:47;;;;;;;11.88;4.78;;;;;;;11.01;60.24;100271.47;5225042;26;20040;-71
2024/04/09 04:31:17;;;;;;;12.23;6.78;;;;;;;10.92;59.76;100269.34;5234248;26;19998;-70
2024/04/09 04:33:43;;;;;;;8.02;5.32;;;;;;;10.89;60.44;100266.91;5236674;26;20566;-70
2024/04/09 04:36:10;;;;;;;9.55;6.30;;;;;;;10.85;60.00;100267.97;5232886;26;20463;-69
2024/04/09 04:38:37;;;;;;;11.30;7.22;;;;;;;10.83;60.70;100267.19;5222135;26;20465;-69
2024/04/09 04:41:04;;;;;;;14.07;6.18;;;;;;;10.81;60.62;100262.03;5234728;26;20093;-69
2024/04/09 04:43:31;;;;;;;8.85;5.45;;;;;;;10.75;60.53;100267.56;5237416;26;20080;-69
2024/04/09 04:45:57;;;;;;;13.60;7.07;;;;;;;10.69;61.12;100285.31;5221737;26;20017;-69
2024/04/09 04:48:23;;;;;;;17.80;7.72;;;;;;;10.67;61.22;100297.63;5233462;26;20694;-71
2024/04/09 04:50:49;;;;;;;11.60;7.10;;;;;;;10.67;61.25;100308.06;5226821;26;20125;-73
2024/04/09 04:53:15;;;;;;;12.77;7.28;;;;;;;10.61;61.36;100310.06;5227721;26;20021;-67
2024/04/09 04:55:41;;;;;;;16.67;7.35;;;;;;;10.59;61.62;100309.31;5224004;26;20212;-68
2024/04/09 04:58:07;;;;;;;12.68;8.18;;;;;;;10.69;61.29;100316.69;5238173;26;20438;-68
2024/04/09 05:00:38;;;;;;;13.85;7.15;;;;;;;10.68;61.27;100315.81;5233576;26;20002;-69
2024/04/09 05:03:05;;;;;;;16.38;8.15;;;;;;;10.78;61.55;100322.28;5231175;26;20017;-71
2024/04/09 05:05:30;;;;;;;17.27;8.40;;;;;;;10.45;62.31;100324.78;5229001;26;20022;-71
2024/04/09 05:07:56;;;;;;;15.35;8.80;;;;;;;10.62;62.10;100343.13;5230155;26;21146;-69
2024/04/09 05:10:22;;;;;;;14.68;10.18;;;;;;;10.39;62.79;100340.75;5229914;26;20005;-70
2024/04/09 05:12:49;;;;;;;16.77;9.32;;;;;;;10.57;62.30;100337.28;5253158;26;20006;-74
2024/04/09 05:15:16;;;;;;;22.85;9.48;;;;;;;10.82;61.90;100341.34;5227813;26;20002;-75
2024/04/09 05:17:42;;;;;;;15.98;9.02;;;;;;;10.99;61.39;100345.72;5229768;26;20006;-69
2024/04/09 05:20:11;;;;;;;12.48;9.02;;;;;;;10.97;61.22;100345.81;5227475;26;20017;-71
2024/04/09 05:22:39;;;;;;;17.08;8.95;;;;;;;11.02;61.26;100346.41;5230649;26;20009;-68
2024/04/09 05:25:05;;;;;;;17.70;9.52;;;;;;;11.10;60.85;100353.03;5230346;26;20010;-67
2024/04/09 05:27:31;;;;;;;17.48;11.20;;;;;;;10.72;62.06;100353.13;5210499;27;20014;-68
2024/04/09 05:29:57;;;;;;;18.98;9.65;;;;;;;10.92;61.81;100360.84;5229266;26;20005;-69
2024/04/09 05:32:23;;;;;;;20.45;10.40;;;;;;;11.09;60.94;100346.94;5227518;26;21528;-68
2024/04/09 05:34:49;;;;;;;20.08;10.07;;;;;;;11.27;60.34;100345.16;5240689;26;20019;-68
2024/04/09 05:37:15;;;;;;;22.50;12.23;;;;;;;11.20;60.54;100343.78;5226451;26;20006;-70
2024/04/09 05:39:42;;;;;;;19.83;11.77;;;;;;;11.18;60.92;100351.72;5228505;26;20009;-71
2024/04/09 05:42:09;;;;;;;21.52;11.43;;;;;;;11.16;61.29;100353.56;5234388;26;20040;-69
2024/04/09 05:44:35;;;;;;;19.45;12.05;;;;;;;11.35;60.63;100358.72;5232263;26;20010;-68
2024/04/09 05:47:01;;;;;;;19.63;12.13;;;;;;;11.44;60.50;100367.81;5224047;26;20818;-70
2024/04/09 05:49:26;;;;;;;27.38;12.15;;;;;;;11.29;60.88;100379.94;5234729;26;20021;-69
2024/04/09 05:51:51;;;;;;;25.40;11.65;;;;;;;11.01;61.75;100390.94;5226146;26;20549;-71
2024/04/09 05:54:19;;;;;;;19.15;11.57;;;;;;;10.82;62.81;100397.06;5234966;26;20057;-71
2024/04/09 05:56:47;;;;;;;19.13;12.07;;;;;;;10.70;63.11;100405.47;5232616;26;20103;-71
2024/04/09 05:59:13;;;;;;;26.05;13.05;;;;;;;11.15;61.72;100408.53;5244882;26;20049;-70
2024/04/09 06:01:43;;;;;;;26.23;12.55;;;;;;;11.18;61.72;100414.50;5257018;26;20467;-69
2024/04/09 06:04:12;;;;;;;19.00;11.18;;;;;;;11.29;61.44;100421.81;5232236;26;20006;-71
2024/04/09 06:06:38;;;;;;;21.90;11.80;;;;;;;11.42;61.00;100429.88;5226653;26;19991;-73
2024/04/09 06:09:03;;;;;;;17.25;11.52;;;;;;;11.48;60.97;100431.34;5235966;26;20155;-70
2024/04/09 06:11:31;;;;;;;24.90;13.07;;;;;;;11.34;60.92;100429.41;5212493;26;20006;-68
2024/04/09 06:13:56;;;;;;;18.40;10.73;;;;;;;11.58;60.58;100437.81;5227546;26;20006;-71
2024/04/09 06:16:22;;;;;;;22.92;10.38;;;;;;;11.28;61.04;100448.88;5228164;26;20057;-73
2024/04/09 06:18:53;;;;;;;18.67;9.45;;;;;;;11.11;61.98;100464.56;5223975;26;20002;-71
2024/04/09 06:21:18;;;;;;;15.13;9.27;;;;;;;11.15;61.68;100463.47;5231470;26;20795;-71
2024/04/09 06:23:54;;;;;;;17.58;9.68;;;;;;;11.01;61.69;100470.22;5219642;26;20002;-69
2024/04/09 06:26:20;;;;;;;16.45;8.98;;;;;;;11.29;61.16;100479.38;5232179;26;20002;-70
2024/04/09 06:28:53;;;;;;;20.05;8.93;;;;;;;11.56;60.37;100481.53;5223967;26;20320;-69
2024/04/09 06:31:19;;;;;;;11.52;7.60;;;;;;;11.34;60.82;100490.44;5232476;26;20041;-69
2024/04/09 06:33:46;;;;;;;12.05;7.47;;;;;;;11.66;59.86;100499.31;5219558;26;20064;-69
2024/04/09 06:36:12;;;;;;;17.23;7.63;;;;;;;11.63;60.38;100504.69;5230357;26;20010;-72
2024/04/09 06:38:38;;;;;;;9.38;6.63;;;;;;;11.15;61.58;100519.28;5226765;26;20480;-71
2024/04/09 06:41:04;;;;;;;16.98;6.50;;;;;;;11.48;60.25;100515.91;5231535;26;20565;-67
2024/04/09 06:43:30;;;;;;;10.65;6.43;;;;;;;11.33;60.44;100501.84;5229250;26;20689;-69
2024/04/09 06:45:55;;;;;;;12.15;7.13;;;;;;;11.92;59.28;100497.16;5222035;26;19998;-69
2024/04/09 06:48:21;;;;;;;9.68;5.50;;;;;;;11.91;59.09;100486.75;5224957;26;20003;-69
2024/04/09 06:50:46;;;;;;;14.02;6.70;;;;;;;11.84;58.98;100492.31;5223268;26;20006;-72
2024/04/09 06:53:14;;;;;;;12.18;5.45;;;;;;;12.11;57.96;100476.09;5226539;26;22449;-69
2024/04/09 06:55:43;;;;;;;10.07;5.53;;;;;;;12.11;58.01;100483.97;5229102;26;20005;-72
2024/04/09 06:58:10;;;;;;;8.98;5.45;;;;;;;12.04;58.20;100499.16;5215659;26;20020;-71
2024/04/09 07:00:36;;;;;;;8.85;5.68;;;;;;;11.66;59.06;100498.44;5220455;26;20784;-69
2024/04/09 07:03:04;;;;;;;9.05;5.50;;;;;;;11.81;58.57;100508.19;5226963;26;20018;-69
2024/04/09 07:05:31;;;;;;;9.27;5.32;;;;;;;11.85;58.48;100530.66;5223031;26;19998;-69
2024/04/09 07:07:59;;;;;;;9.32;4.60;;;;;;;11.96;58.01;100531.91;5228864;26;20010;-71
2024/04/09 07:10:27;;;;;;;8.23;5.13;;;;;;;11.93;58.19;100521.56;5236045;26;20045;-71
2024/04/09 07:12:54;;;;;;;6.95;5.40;;;;;;;12.13;57.97;100486.47;5232011;26;20013;-70
2024/04/09 07:15:26;;;;;;;9.55;4.97;;;;;;;12.16;58.16;100479.31;5234635;26;19999;-71
2024/04/09 07:17:57;;;;;;;5.55;4.78;;;;;;;11.93;58.93;100480.50;5230364;26;20153;-70
2024/04/09 07:20:29;;;;;;;6.85;5.35;;;;;;;11.51;59.98;100505.31;5231675;26;20341;-69
2024/04/09 07:22:55;;;;;;;13.75;5.07;;;;;;;11.58;59.98;100532.03;5253771;26;19998;-70
2024/04/09 07:25:23;;;;;;;6.50;3.63;;;;;;;11.06;59.74;100522.31;5230983;26;20020;-70
2024/04/09 07:27:53;;;;;;;9.13;2.55;;;;;;;10.83;59.36;100539.94;5244340;26;20005;-71
2024/04/09 07:30:20;;;;;;;3.75;2.05;;;;;;;11.27;57.47;100546.59;5251599;26;20017;-71
2024/04/09 07:32:45;;;;;;;2.72;1.95;;;;;;;11.15;57.27;100555.03;5232126;26;22948;-72
2024/04/09 07:35:14;;;;;;;4.53;1.45;;;;;;;10.54;58.50;100579.59;5225197;26;19998;-70
2024/04/09 07:37:41;;;;;;;3.22;0.90;;;;;;;11.11;56.85;100595.34;5254500;26;21773;-70
2024/04/09 07:40:08;;;;;;;3.22;1.13;;;;;;;10.77;57.00;100596.84;5252383;26;22840;-70
2024/04/09 07:42:33;;;;;;;5.45;0.57;;;;;;;10.79;56.43;100589.78;5249250;26;20005;-69
2024/04/09 07:45:02;;;;;;;7.10;1.50;;;;;;;10.98;55.96;100590.66;5251046;26;20105;-70
2024/04/09 07:47:30;;;;;;;0.90;0.40;;;;;;;11.39;55.21;100594.88;5218996;26;20045;-69
2024/04/09 07:49:55;;;;;;;4.60;0.70;;;;;;;11.37;54.81;100597.56;5230859;26;20007;-68
2024/04/09 07:52:23;;;;;;;4.18;0.77;;;;;;;11.50;54.18;100592.59;5249845;26;20362;-70
2024/04/09 07:54:48;;;;;;;3.67;0.90;;;;;;;12.02;53.61;100586.56;5251559;26;19998;-70
2024/04/09 07:57:14;;;;;;;3.47;1.17;;;;;;;11.60;53.51;100572.06;5241427;26;20004;-70
2024/04/09 07:59:41;;;;;;;3.10;0.38;;;;;;;11.44;53.11;100570.19;5265034;26;20071;-69
2024/04/09 08:02:06;;;;;;;1.60;0.30;;;;;;;11.80;52.76;100565.88;5218722;26;20010;-74
2024/04/09 08:04:34;;;;;;;2.20;0.35;;;;;;;12.03;51.81;100575.19;5231205;26;20008;-69
2024/04/09 08:06:59;;;;;;;7.40;0.68;;;;;;;12.06;50.58;100591.56;5231875;26;20062;-68
2024/04/09 08:09:28;;;;;;;4.30;0.20;;;;;;;12.34;49.79;100584.94;5230760;26;20045;-68
2024/04/09 08:11:53;;;;;;;6.32;0.32;;;;;;;12.84;49.09;100577.94;5223309;26;20021;-68
2024/04/09 08:14:22;;;;;;;4.93;0.30;;;;;;;13.13;48.45;100578.97;5225383;26;20014;-68
2024/04/09 08:16:51;;;;;;;4.68;0.82;;;;;;;12.70;47.69;100581.31;5230965;26;20054;-68
2024/04/09 08:19:17;;;;;;;2.05;0.20;;;;;;;12.33;48.41;100577.13;5231826;26;20621;-68
2024/04/09 08:21:42;;;;;;;1.95;0.28;;;;;;;12.59;49.20;100568.75;5230729;26;20006;-68
2024/04/09 08:24:08;;;;;;;4.53;0.30;;;;;;;12.31;48.95;100599.97;5221523;26;20011;-68
2024/04/09 08:26:35;;;;;;;1.98;0.52;;;;;;;11.59;50.02;100623.53;5224384;26;20093;-68
2024/04/09 08:29:05;;;;;;;3.83;0.20;;;;;;;11.31;50.45;100658.03;5257424;26;20013;-67
2024/04/09 08:31:36;;;;;;;6.47;0.32;;;;;;;11.30;50.43;100653.72;5233091;26;20002;-69
2024/04/09 08:34:01;;;;;;;2.40;0.25;;;;;;;11.32;50.38;100622.25;5222793;26;20392;-67
2024/04/09 08:36:28;;;;;;;3.70;0.77;;;;;;;11.25;50.35;100612.06;5225688;26;20002;-68
2024/04/09 08:38:53;;;;;;;3.08;0.30;;;;;;;11.48;50.54;100583.97;5235285;26;20006;-69
2024/04/09 08:41:20;;;;;;;5.68;0.20;;;;;;;11.59;50.59;100581.66;5237515;26;20007;-69
2024/04/09 08:43:47;;;;;;;4.30;0.40;;;;;;;11.70;50.11;100594.22;5227985;26;20008;-68
2024/04/09 08:46:13;;;;;;;7.70;0.55;;;;;;;11.40;51.04;100601.81;5218582;26;22131;-69
2024/04/09 08:48:45;;;;;;;4.07;0.30;;;;;;;11.52;51.49;100613.47;5227114;26;20002;-67
2024/04/09 08:51:12;;;;;;;2.35;0.20;;;;;;;11.42;51.17;100611.28;5209421;26;20002;-69
2024/04/09 08:53:40;;;;;;;8.40;0.50;;;;;;;11.30;51.36;100600.56;5216227;26;20002;-68
2024/04/09 08:56:11;;;;;;;5.73;0.53;;;;;;;11.11;51.32;100608.44;5214280;26;20002;-68
2024/04/09 08:58:36;;;;;;;2.15;0.40;;;;;;;11.38;51.70;100601.88;5224334;26;20305;-68
2024/04/09 09:01:02;;;;;;;9.45;0.93;;;;;;;11.11;51.79;100608.44;5211682;26;24143;-69
2024/04/09 09:03:27;;;;;;;4.05;0.35;;;;;;;10.98;51.23;100616.81;5208929;26;20012;-69
2024/04/09 09:06:00;;;;;;;1.00;0.20;;;;;;;11.10;52.09;100627.63;5210700;26;20001;-69
2024/04/09 09:08:26;;;;;;;5.03;1.17;;;;;;;11.42;51.54;100629.59;5230959;26;20006;-71
2024/04/09 09:10:55;;;;;;;7.47;0.40;;;;;;;11.03;51.97;100645.38;5227305;26;20006;-69
2024/04/09 09:13:23;;;;;;;;;;;;;;;11.36;51.49;100656.06;5231952;26;20612;-68
2024/04/09 09:15:55;;;;;;;2.00;0.57;;;;;;;11.39;51.26;100663.75;5223382;26;19934;-69
2024/04/09 09:18:24;;;;;;;3.20;0.32;;;;;;;11.57;51.15;100669.03;5230498;26;20427;-68
2024/04/09 09:21:05;;;;;;;5.05;0.30;;;;;;;11.56;51.30;100683.06;5219166;26;20017;-69
2024/04/09 09:23:34;;;;;;;5.82;0.45;;;;;;;11.79;51.22;100674.97;5245065;26;20566;-68
2024/04/09 09:26:00;;;;;;;6.55;0.75;;;;;;;11.75;50.85;100676.00;5222237;26;20017;-69
2024/04/09 09:28:25;;;;;;;3.03;0.40;;;;;;;11.79;51.13;100671.53;5230732;26;20013;-69
2024/04/09 09:30:55;;;;;;;2.08;0.30;;;;;;;11.82;51.39;100667.00;5227426;26;22474;-69
2024/04/09 09:33:29;;;;;;;5.88;0.98;;;;;;;11.78;51.06;100667.22;5191500;26;20345;-69
2024/04/09 09:35:57;;;;;;;4.97;0.90;;;;;;;11.73;51.42;100671.78;5221261;26;20009;-70
2024/04/09 09:38:29;;;;;;;5.85;1.00;;;;;;;11.66;51.85;100686.94;5206895;26;20032;-68
2024/04/09 09:40:54;;;;;;;5.45;0.88;;;;;;;11.68;52.41;100698.19;5262916;26;20001;-70
2024/04/09 09:43:22;;;;;;;5.55;0.85;;;;;;;11.66;52.33;100707.88;5214335;26;20859;-68
2024/04/09 09:45:48;;;;;;;2.30;0.32;;;;;;;11.56;53.11;100744.13;5215003;26;21487;-69
2024/04/09 09:48:19;;;;;;;5.03;0.68;;;;;;;11.51;53.14;100745.22;5226290;26;20248;-69
2024/04/09 09:50:45;;;;;;;2.53;0.80;;;;;;;11.23;54.00;100736.88;5210136;26;20042;-69
2024/04/09 09:53:11;;;;;;;3.53;0.45;;;;;;;11.18;54.27;100717.94;5206800;26;19998;-69
2024/04/09 09:55:37;;;;;;;1.10;0.40;;;;;;;11.08;54.95;100705.31;5231488;26;20678;-70
2024/04/09 09:58:09;;;;;;;1.95;0.25;;;;;;;11.01;55.25;100709.97;5211432;26;20012;-69
2024/04/09 10:00:36;;;;;;;1.52;0.63;;;;;;;11.12;55.01;100681.56;5163362;27;20002;-70
2024/04/09 10:03:03;;;;;;;4.78;0.55;;;;;;;11.17;55.20;100669.16;5241369;26;20009;-70
2024/04/09 10:05:34;;;;;;;2.35;0.55;;;;;;;11.38;55.15;100687.41;5256805;26;20006;-69
2024/04/09 10:08:00;;;;;;;5.20;1.70;;;;;;;11.19;55.44;100709.16;5222660;26;20045;-70
2024/04/09 10:10:26;;;;;;;4.75;1.25;;;;;;;10.99;56.28;100719.66;5232960;26;20091;-69
2024/04/09 10:12:58;;;;;;;5.13;1.05;;;;;;;10.67;56.89;100713.19;5157744;26;20585;-70
2024/04/09 10:15:27;;;;;;;8.98;2.10;;;;;;;10.08;57.85;100719.97;5208814;27;20708;-69
2024/04/09 10:17:55;;;;;;;6.25;1.02;;;;;;;10.52;56.30;100731.22;5250734;26;20174;-68
2024/04/09 10:20:31;;;;;;;6.05;1.00;;;;;;;10.70;56.65;100733.97;5239871;26;20025;-68
2024/04/09 10:23:02;;;;;;;10.20;1.95;;;;;;;10.50;56.43;100738.25;5232885;26;20740;-68
2024/04/09 10:25:37;;;;;;;9.07;1.55;;;;;;;9.99;57.72;100742.09;5233746;26;20045;-67
2024/04/09 10:28:06;;;;;;;8.07;1.95;;;;;;;10.46;57.27;100736.72;5220064;26;20005;-67
2024/04/09 10:30:33;;;;;;;6.70;1.92;;;;;;;10.06;57.70;100734.84;5232635;26;20087;-68
2024/04/09 10:33:04;;;;;;;7.68;2.13;;;;;;;10.53;57.20;100730.31;5225436;26;20017;-68
2024/04/09 10:35:32;;;;;;;6.30;1.27;;;;;;;10.77;56.72;100733.66;5233767;26;20361;-68
2024/04/09 10:38:04;;;;;;;6.95;2.13;;;;;;;10.09;57.78;100743.44;5216459;26;20526;-72
2024/04/09 10:40:30;;;;;;;7.55;2.30;;;;;;;10.38;57.10;100749.25;5228713;26;20758;-67
2024/04/09 10:42:58;;;;;;;8.18;1.60;;;;;;;10.49;56.91;100738.34;5243841;26;20462;-68
2024/04/09 10:45:24;;;;;;;6.40;1.85;;;;;;;10.63;56.42;100744.66;5219849;26;20016;-68
2024/04/09 10:47:49;;;;;;;3.70;1.13;;;;;;;10.66;56.91;100738.50;5230204;26;20017;-68
2024/04/09 10:50:16;;;;;;;6.07;2.70;;;;;;;10.58;57.12;100743.19;5223641;26;21069;-69
2024/04/09 10:52:41;;;;;;;6.40;1.95;;;;;;;10.48;57.32;100750.56;5221712;26;20204;-68
2024/04/09 10:55:09;;;;;;;6.15;1.60;;;;;;;10.41;58.37;100751.72;5221566;26;20226;-68
2024/04/09 10:57:34;;;;;;;10.77;2.13;;;;;;;10.69;57.55;100743.56;5225847;26;20010;-69
2024/04/09 11:00:11;;;;;;;6.07;1.58;;;;;;;11.02;57.20;100743.06;5228290;26;21750;-67
2024/04/09 11:02:47;;;;;;;4.30;1.08;;;;;;;11.18;56.93;100743.25;5253989;26;20019;-68
2024/04/09 11:05:18;;;;;;;4.60;1.55;;;;;;;11.24;56.59;100761.25;5233487;26;20006;-69
2024/04/09 11:07:52;;;;;;;15.15;1.55;;;;;;;11.19;56.96;100750.16;5244126;26;20011;-69
2024/04/09 11:10:20;;;;;;;3.38;1.85;;;;;;;11.27;56.40;100757.69;5236802;26;20029;-69
2024/04/09 11:12:51;;;;;;;8.02;1.60;;;;;;;11.50;56.16;100759.25;5221660;26;20417;-68
2024/04/09 11:15:18;;;;;;;8.57;1.30;;;;;;;11.51;56.29;100764.44;5224805;26;20014;-69
2024/04/09 11:17:44;;;;;;;8.35;1.90;;;;;;;11.67;55.93;100778.50;5218593;26;20025;-70
2024/04/09 11:20:19;;;;;;;11.43;1.65;;;;;;;11.42;56.10;100770.91;5223122;26;20010;-70